sensor_id;sensor_type;location;lat;lon;timestamp;pressure;altitude;pressure_sealevel;temperature;humidity
58761;BME280;44529;47.464;19.014;2023-06-19T00:01:32;100154.66;;;17.13;78.63
58761;BME280;44529;47.464;19.014;2023-06-19T00:04:35;100146.47;;;17.13;78.87
58761;BME280;44529;47.464;19.014;2023-06-19T00:07:37;100146.75;;;17.08;79.01
58761;BME280;44529;47.464;19.014;2023-06-19T00:10:39;100142.00;;;17.04;79.39
58761;BME280;44529;47.464;19.014;2023-06-19T00:13:41;100147.19;;;17.10;79.09
58761;BME280;44529;47.464;19.014;2023-06-19T00:16:44;100141.72;;;17.10;79.15
58761;BME280;44529;47.464;19.014;2023-06-19T00:19:47;100146.69;;;17.04;79.48
58761;BME280;44529;47.464;19.014;2023-06-19T00:22:51;100148.09;;;16.98;79.79
58761;BME280;44529;47.464;19.014;2023-06-19T00:25:54;100144.22;;;16.99;79.18
58761;BME280;44529;47.464;19.014;2023-06-19T00:28:56;100142.56;;;16.94;79.93
58761;BME280;44529;47.464;19.014;2023-06-19T00:31:59;100147.25;;;16.94;79.53
58761;BME280;44529;47.464;19.014;2023-06-19T00:35:02;100138.59;;;16.92;79.74
58761;BME280;44529;47.464;19.014;2023-06-19T00:38:05;100148.72;;;16.91;79.44
58761;BME280;44529;47.464;19.014;2023-06-19T00:41:08;100147.00;;;16.83;80.43
58761;BME280;44529;47.464;19.014;2023-06-19T00:44:11;100139.16;;;16.82;80.70
58761;BME280;44529;47.464;19.014;2023-06-19T00:47:13;100143.31;;;16.75;81.52
58761;BME280;44529;47.464;19.014;2023-06-19T00:50:16;100149.06;;;16.70;81.37
58761;BME280;44529;47.464;19.014;2023-06-19T00:53:19;100152.44;;;16.67;80.73
58761;BME280;44529;47.464;19.014;2023-06-19T00:56:21;100143.41;;;16.63;81.09
58761;BME280;44529;47.464;19.014;2023-06-19T00:59:25;100141.81;;;16.62;81.45
58761;BME280;44529;47.464;19.014;2023-06-19T01:02:28;100145.75;;;16.65;81.08
58761;BME280;44529;47.464;19.014;2023-06-19T01:05:30;100144.88;;;16.61;80.87
58761;BME280;44529;47.464;19.014;2023-06-19T01:09:02;100142.16;;;16.61;80.80
58761;BME280;44529;47.464;19.014;2023-06-19T01:12:16;100134.69;;;16.58;80.85
58761;BME280;44529;47.464;19.014;2023-06-19T01:15:21;100133.78;;;16.53;80.71
58761;BME280;44529;47.464;19.014;2023-06-19T01:18:25;100130.28;;;16.53;80.50
58761;BME280;44529;47.464;19.014;2023-06-19T01:21:29;100133.16;;;16.60;79.97
58761;BME280;44529;47.464;19.014;2023-06-19T01:24:31;100137.84;;;16.60;79.87
58761;BME280;44529;47.464;19.014;2023-06-19T01:27:36;100135.03;;;16.56;80.36
58761;BME280;44529;47.464;19.014;2023-06-19T01:30:40;100136.53;;;16.53;80.46
58761;BME280;44529;47.464;19.014;2023-06-19T01:33:44;100131.06;;;16.53;80.21
58761;BME280;44529;47.464;19.014;2023-06-19T01:36:50;100129.66;;;16.60;80.02
58761;BME280;44529;47.464;19.014;2023-06-19T01:39:56;100123.13;;;16.48;80.98
58761;BME280;44529;47.464;19.014;2023-06-19T01:42:59;100121.50;;;16.44;81.26
58761;BME280;44529;47.464;19.014;2023-06-19T01:46:06;100117.19;;;16.43;81.22
58761;BME280;44529;47.464;19.014;2023-06-19T01:49:09;100118.66;;;16.40;81.78
58761;BME280;44529;47.464;19.014;2023-06-19T01:52:13;100105.91;;;16.29;81.64
58761;BME280;44529;47.464;19.014;2023-06-19T01:55:16;100109.72;;;16.24;82.81
58761;BME280;44529;47.464;19.014;2023-06-19T01:58:18;100112.44;;;16.24;82.52
58761;BME280;44529;47.464;19.014;2023-06-19T02:01:21;100104.09;;;16.17;83.03
58761;BME280;44529;47.464;19.014;2023-06-19T02:04:23;100109.09;;;16.15;82.99
58761;BME280;44529;47.464;19.014;2023-06-19T02:07:25;100103.97;;;16.13;83.16
58761;BME280;44529;47.464;19.014;2023-06-19T02:10:28;100099.94;;;16.07;83.25
58761;BME280;44529;47.464;19.014;2023-06-19T02:13:30;100110.06;;;16.07;83.71
58761;BME280;44529;47.464;19.014;2023-06-19T02:16:33;100101.69;;;16.00;84.00
58761;BME280;44529;47.464;19.014;2023-06-19T02:19:35;100108.63;;;15.97;84.80
58761;BME280;44529;47.464;19.014;2023-06-19T02:22:38;100117.16;;;15.95;84.92
58761;BME280;44529;47.464;19.014;2023-06-19T02:25:41;100122.97;;;15.94;84.80
58761;BME280;44529;47.464;19.014;2023-06-19T02:28:43;100124.47;;;15.91;85.02
58761;BME280;44529;47.464;19.014;2023-06-19T02:31:46;100125.41;;;15.83;85.50
58761;BME280;44529;47.464;19.014;2023-06-19T02:34:48;100127.34;;;15.83;84.96
58761;BME280;44529;47.464;19.014;2023-06-19T02:37:50;100122.19;;;15.93;84.34
58761;BME280;44529;47.464;19.014;2023-06-19T02:40:55;100119.03;;;15.91;84.18
58761;BME280;44529;47.464;19.014;2023-06-19T02:43:59;100122.09;;;15.90;84.33
58761;BME280;44529;47.464;19.014;2023-06-19T02:47:01;100126.41;;;15.91;84.39
58761;BME280;44529;47.464;19.014;2023-06-19T02:50:04;100119.72;;;15.88;84.54
58761;BME280;44529;47.464;19.014;2023-06-19T02:53:07;100123.16;;;15.85;84.48
58761;BME280;44529;47.464;19.014;2023-06-19T02:56:13;100132.47;;;15.84;84.15
58761;BME280;44529;47.464;19.014;2023-06-19T02:59:15;100135.63;;;15.86;84.37
58761;BME280;44529;47.464;19.014;2023-06-19T03:02:18;100127.47;;;15.86;85.07
58761;BME280;44529;47.464;19.014;2023-06-19T03:05:20;100126.19;;;15.84;85.29
58761;BME280;44529;47.464;19.014;2023-06-19T03:08:23;100130.31;;;15.78;85.72
58761;BME280;44529;47.464;19.014;2023-06-19T03:11:25;100134.47;;;15.72;86.22
58761;BME280;44529;47.464;19.014;2023-06-19T03:14:27;100143.53;;;15.76;86.36
58761;BME280;44529;47.464;19.014;2023-06-19T03:17:30;100141.84;;;15.71;86.69
58761;BME280;44529;47.464;19.014;2023-06-19T03:20:32;100153.88;;;15.70;87.51
58761;BME280;44529;47.464;19.014;2023-06-19T03:23:35;100162.06;;;15.70;87.43
58761;BME280;44529;47.464;19.014;2023-06-19T03:26:39;100160.00;;;15.79;87.18
58761;BME280;44529;47.464;19.014;2023-06-19T03:29:41;100161.56;;;15.80;87.77
58761;BME280;44529;47.464;19.014;2023-06-19T03:32:44;100163.88;;;15.78;88.10
58761;BME280;44529;47.464;19.014;2023-06-19T03:35:47;100158.13;;;15.83;88.07
58761;BME280;44529;47.464;19.014;2023-06-19T03:38:52;100166.63;;;15.94;87.62
58761;BME280;44529;47.464;19.014;2023-06-19T03:41:56;100168.31;;;15.98;87.95
58761;BME280;44529;47.464;19.014;2023-06-19T03:44:58;100156.25;;;16.00;87.93
58761;BME280;44529;47.464;19.014;2023-06-19T03:48:01;100157.94;;;16.04;87.86
58761;BME280;44529;47.464;19.014;2023-06-19T03:51:04;100157.66;;;16.09;87.72
58761;BME280;44529;47.464;19.014;2023-06-19T03:54:07;100155.81;;;16.13;87.71
58761;BME280;44529;47.464;19.014;2023-06-19T03:57:09;100155.91;;;16.17;88.05
58761;BME280;44529;47.464;19.014;2023-06-19T04:00:13;100155.56;;;16.18;88.29
58761;BME280;44529;47.464;19.014;2023-06-19T04:03:16;100145.50;;;16.22;88.46
58761;BME280;44529;47.464;19.014;2023-06-19T04:06:20;100150.34;;;16.29;88.35
58761;BME280;44529;47.464;19.014;2023-06-19T04:09:22;100157.59;;;16.37;87.94
58761;BME280;44529;47.464;19.014;2023-06-19T04:12:24;100159.25;;;16.42;88.50
58761;BME280;44529;47.464;19.014;2023-06-19T04:15:27;100152.31;;;16.44;88.36
58761;BME280;44529;47.464;19.014;2023-06-19T04:18:29;100157.94;;;16.51;87.96
58761;BME280;44529;47.464;19.014;2023-06-19T04:21:32;100158.03;;;16.55;88.00
58761;BME280;44529;47.464;19.014;2023-06-19T04:24:35;100154.16;;;16.56;88.42
58761;BME280;44529;47.464;19.014;2023-06-19T04:27:38;100151.94;;;16.62;88.17
58761;BME280;44529;47.464;19.014;2023-06-19T04:30:40;100159.06;;;16.66;88.03
58761;BME280;44529;47.464;19.014;2023-06-19T04:33:43;100159.19;;;16.70;88.21
58761;BME280;44529;47.464;19.014;2023-06-19T04:36:47;100162.50;;;16.79;87.90
58761;BME280;44529;47.464;19.014;2023-06-19T04:39:49;100159.59;;;16.88;88.24
58761;BME280;44529;47.464;19.014;2023-06-19T04:42:52;100154.34;;;16.98;87.86
58761;BME280;44529;47.464;19.014;2023-06-19T04:45:56;100154.50;;;17.05;88.65
58761;BME280;44529;47.464;19.014;2023-06-19T04:48:58;100160.94;;;17.13;88.16
58761;BME280;44529;47.464;19.014;2023-06-19T04:52:01;100161.78;;;17.17;88.84
58761;BME280;44529;47.464;19.014;2023-06-19T04:55:07;100167.34;;;17.21;89.31
58761;BME280;44529;47.464;19.014;2023-06-19T04:58:12;100168.19;;;17.25;89.25
58761;BME280;44529;47.464;19.014;2023-06-19T05:01:15;100166.69;;;17.27;88.80
58761;BME280;44529;47.464;19.014;2023-06-19T05:04:18;100170.28;;;17.31;89.32
58761;BME280;44529;47.464;19.014;2023-06-19T05:07:20;100175.47;;;17.37;88.76
58761;BME280;44529;47.464;19.014;2023-06-19T05:10:24;100181.72;;;17.37;88.66
58761;BME280;44529;47.464;19.014;2023-06-19T05:13:26;100180.25;;;17.40;87.97
58761;BME280;44529;47.464;19.014;2023-06-19T05:16:29;100184.97;;;17.43;88.42
58761;BME280;44529;47.464;19.014;2023-06-19T05:19:31;100185.50;;;17.48;86.83
58761;BME280;44529;47.464;19.014;2023-06-19T05:22:34;100197.31;;;17.52;85.55
58761;BME280;44529;47.464;19.014;2023-06-19T05:25:36;100191.97;;;17.59;85.87
58761;BME280;44529;47.464;19.014;2023-06-19T05:28:39;100194.75;;;17.63;85.33
58761;BME280;44529;47.464;19.014;2023-06-19T05:31:41;100197.63;;;17.70;85.28
58761;BME280;44529;47.464;19.014;2023-06-19T05:34:44;100196.69;;;17.78;84.55
58761;BME280;44529;47.464;19.014;2023-06-19T05:37:46;100197.97;;;17.84;83.27
58761;BME280;44529;47.464;19.014;2023-06-19T05:40:50;100196.87;;;17.89;82.89
58761;BME280;44529;47.464;19.014;2023-06-19T05:43:53;100205.66;;;17.98;82.24
58761;BME280;44529;47.464;19.014;2023-06-19T05:46:55;100199.06;;;18.03;82.31
58761;BME280;44529;47.464;19.014;2023-06-19T05:49:58;100202.31;;;18.08;82.48
58761;BME280;44529;47.464;19.014;2023-06-19T05:53:00;100207.50;;;18.13;82.07
58761;BME280;44529;47.464;19.014;2023-06-19T05:56:03;100210.34;;;18.21;82.36
58761;BME280;44529;47.464;19.014;2023-06-19T05:59:06;100211.62;;;18.27;81.27
58761;BME280;44529;47.464;19.014;2023-06-19T06:02:08;100214.50;;;18.34;80.35
58761;BME280;44529;47.464;19.014;2023-06-19T06:05:10;100219.69;;;18.39;80.07
58761;BME280;44529;47.464;19.014;2023-06-19T06:08:13;100212.75;;;18.45;79.46
58761;BME280;44529;47.464;19.014;2023-06-19T06:11:15;100219.91;;;18.53;79.23
58761;BME280;44529;47.464;19.014;2023-06-19T06:14:18;100217.66;;;18.59;79.30
58761;BME280;44529;47.464;19.014;2023-06-19T06:17:20;100218.94;;;18.65;79.13
58761;BME280;44529;47.464;19.014;2023-06-19T06:20:22;100219.09;;;18.72;78.98
58761;BME280;44529;47.464;19.014;2023-06-19T06:23:26;100221.13;;;18.79;79.26
58761;BME280;44529;47.464;19.014;2023-06-19T06:26:28;100215.06;;;18.89;78.50
58761;BME280;44529;47.464;19.014;2023-06-19T06:29:31;100224.09;;;18.93;78.24
58761;BME280;44529;47.464;19.014;2023-06-19T06:32:33;100226.63;;;19.05;78.33
58761;BME280;44529;47.464;19.014;2023-06-19T06:35:36;100224.81;;;19.13;78.24
58761;BME280;44529;47.464;19.014;2023-06-19T06:38:38;100226.87;;;19.19;77.90
58761;BME280;44529;47.464;19.014;2023-06-19T06:41:41;100231.69;;;19.30;77.25
58761;BME280;44529;47.464;19.014;2023-06-19T06:44:45;100228.72;;;19.42;76.83
58761;BME280;44529;47.464;19.014;2023-06-19T06:47:49;100228.81;;;19.49;77.04
58761;BME280;44529;47.464;19.014;2023-06-19T06:50:52;100234.09;;;19.61;76.24
58761;BME280;44529;47.464;19.014;2023-06-19T06:54:01;100229.53;;;19.72;76.70
58761;BME280;44529;47.464;19.014;2023-06-19T06:57:03;100228.50;;;19.84;73.90
58761;BME280;44529;47.464;19.014;2023-06-19T07:00:08;100226.31;;;19.97;73.83
58761;BME280;44529;47.464;19.014;2023-06-19T07:03:13;100233.91;;;20.14;74.08
58761;BME280;44529;47.464;19.014;2023-06-19T07:06:16;100234.16;;;20.36;74.09
58761;BME280;44529;47.464;19.014;2023-06-19T07:09:18;100230.84;;;20.57;73.19
58761;BME280;44529;47.464;19.014;2023-06-19T07:12:20;100230.22;;;20.77;70.58
58761;BME280;44529;47.464;19.014;2023-06-19T07:15:23;100225.69;;;21.03;70.05
58761;BME280;44529;47.464;19.014;2023-06-19T07:18:26;100231.00;;;21.29;69.23
58761;BME280;44529;47.464;19.014;2023-06-19T07:21:29;100226.41;;;21.51;68.89
58761;BME280;44529;47.464;19.014;2023-06-19T07:24:32;100222.59;;;21.77;68.57
58761;BME280;44529;47.464;19.014;2023-06-19T07:27:40;100220.31;;;22.04;67.16
58761;BME280;44529;47.464;19.014;2023-06-19T07:30:42;100218.03;;;22.31;65.99
58761;BME280;44529;47.464;19.014;2023-06-19T07:33:45;100220.78;;;22.49;65.92
58761;BME280;44529;47.464;19.014;2023-06-19T07:36:49;100222.78;;;22.74;65.23
58761;BME280;44529;47.464;19.014;2023-06-19T07:39:52;100224.34;;;22.96;60.16
58761;BME280;44529;47.464;19.014;2023-06-19T07:42:55;100228.28;;;23.06;61.47
58761;BME280;44529;47.464;19.014;2023-06-19T07:45:57;100228.22;;;23.23;61.64
58761;BME280;44529;47.464;19.014;2023-06-19T07:49:00;100221.44;;;23.49;61.00
58761;BME280;44529;47.464;19.014;2023-06-19T07:52:03;100219.00;;;23.84;59.55
58761;BME280;44529;47.464;19.014;2023-06-19T07:55:06;100221.94;;;24.18;58.24
58761;BME280;44529;47.464;19.014;2023-06-19T07:58:08;100214.72;;;24.42;56.24
58761;BME280;44529;47.464;19.014;2023-06-19T08:01:11;100214.38;;;24.81;55.06
58761;BME280;44529;47.464;19.014;2023-06-19T08:04:14;100212.97;;;25.07;54.77
58761;BME280;44529;47.464;19.014;2023-06-19T08:07:16;100214.38;;;24.81;54.09
58761;BME280;44529;47.464;19.014;2023-06-19T08:10:19;100211.22;;;24.27;59.62
58761;BME280;44529;47.464;19.014;2023-06-19T08:13:21;100209.28;;;24.24;60.01
58761;BME280;44529;47.464;19.014;2023-06-19T08:16:27;100215.88;;;24.44;59.51
58761;BME280;44529;47.464;19.014;2023-06-19T08:19:30;100220.53;;;24.54;57.33
58761;BME280;44529;47.464;19.014;2023-06-19T08:22:33;100215.41;;;24.53;58.35
58761;BME280;44529;47.464;19.014;2023-06-19T08:25:35;100218.59;;;24.96;56.28
58761;BME280;44529;47.464;19.014;2023-06-19T08:28:38;100215.75;;;25.41;53.21
58761;BME280;44529;47.464;19.014;2023-06-19T08:31:48;100213.41;;;26.04;53.74
58761;BME280;44529;47.464;19.014;2023-06-19T08:34:56;100208.81;;;26.48;51.32
58761;BME280;44529;47.464;19.014;2023-06-19T08:37:59;100212.06;;;26.90;50.21
58761;BME280;44529;47.464;19.014;2023-06-19T08:41:03;100218.59;;;27.23;48.94
58761;BME280;44529;47.464;19.014;2023-06-19T08:44:06;100219.97;;;27.54;47.14
58761;BME280;44529;47.464;19.014;2023-06-19T08:47:09;100215.03;;;27.62;46.36
58761;BME280;44529;47.464;19.014;2023-06-19T08:50:12;100210.44;;;27.75;47.04
58761;BME280;44529;47.464;19.014;2023-06-19T08:53:14;100205.66;;;28.12;45.54
58761;BME280;44529;47.464;19.014;2023-06-19T08:56:20;100207.59;;;28.31;45.08
58761;BME280;44529;47.464;19.014;2023-06-19T08:59:25;100204.56;;;28.58;44.15
58761;BME280;44529;47.464;19.014;2023-06-19T09:02:43;100203.41;;;29.05;42.91
58761;BME280;44529;47.464;19.014;2023-06-19T09:06:07;100200.50;;;29.08;43.49
58761;BME280;44529;47.464;19.014;2023-06-19T09:09:14;100204.94;;;29.64;41.30
58761;BME280;44529;47.464;19.014;2023-06-19T09:12:17;100201.81;;;29.75;41.88
58761;BME280;44529;47.464;19.014;2023-06-19T09:15:21;100204.50;;;29.78;39.34
58761;BME280;44529;47.464;19.014;2023-06-19T09:18:26;100205.28;;;29.79;39.62
58761;BME280;44529;47.464;19.014;2023-06-19T09:21:28;100201.94;;;29.71;38.19
58761;BME280;44529;47.464;19.014;2023-06-19T09:24:40;100206.03;;;28.96;39.72
58761;BME280;44529;47.464;19.014;2023-06-19T09:27:43;100204.03;;;28.80;40.74
58761;BME280;44529;47.464;19.014;2023-06-19T09:31:02;100203.56;;;28.98;39.78
58761;BME280;44529;47.464;19.014;2023-06-19T09:34:04;100196.22;;;28.75;40.89
58761;BME280;44529;47.464;19.014;2023-06-19T09:37:08;100197.97;;;28.36;40.38
58761;BME280;44529;47.464;19.014;2023-06-19T09:40:11;100193.16;;;28.69;38.84
58761;BME280;44529;47.464;19.014;2023-06-19T09:43:24;100193.81;;;28.90;39.03
58761;BME280;44529;47.464;19.014;2023-06-19T09:46:30;100201.25;;;29.25;39.77
58761;BME280;44529;47.464;19.014;2023-06-19T09:49:36;100184.47;;;29.41;39.01
58761;BME280;44529;47.464;19.014;2023-06-19T09:52:43;100188.38;;;29.44;41.19
58761;BME280;44529;47.464;19.014;2023-06-19T09:55:48;100188.00;;;29.71;36.71
58761;BME280;44529;47.464;19.014;2023-06-19T09:58:53;100183.22;;;29.97;37.58
58761;BME280;44529;47.464;19.014;2023-06-19T10:01:57;100179.34;;;30.20;36.46
58761;BME280;44529;47.464;19.014;2023-06-19T10:05:00;100170.78;;;30.14;35.05
58761;BME280;44529;47.464;19.014;2023-06-19T10:08:03;100165.28;;;30.11;35.26
58761;BME280;44529;47.464;19.014;2023-06-19T10:11:07;100161.94;;;30.16;33.51
58761;BME280;44529;47.464;19.014;2023-06-19T10:14:09;100161.72;;;30.23;35.02
58761;BME280;44529;47.464;19.014;2023-06-19T10:17:12;100168.94;;;30.33;35.60
58761;BME280;44529;47.464;19.014;2023-06-19T10:20:35;100160.09;;;30.47;35.12
58761;BME280;44529;47.464;19.014;2023-06-19T10:23:55;100160.19;;;30.69;34.51
58761;BME280;44529;47.464;19.014;2023-06-19T10:27:00;100153.06;;;30.90;34.89
58761;BME280;44529;47.464;19.014;2023-06-19T10:30:03;100148.78;;;30.98;34.93
58761;BME280;44529;47.464;19.014;2023-06-19T10:33:28;100154.31;;;31.11;34.92
58761;BME280;44529;47.464;19.014;2023-06-19T10:36:31;100154.06;;;31.18;34.88
58761;BME280;44529;47.464;19.014;2023-06-19T10:39:33;100148.31;;;31.22;35.16
58761;BME280;44529;47.464;19.014;2023-06-19T10:42:37;100150.09;;;31.07;32.69
58761;BME280;44529;47.464;19.014;2023-06-19T10:45:39;100153.34;;;31.05;33.49
58761;BME280;44529;47.464;19.014;2023-06-19T10:48:42;100156.66;;;31.13;33.07
58761;BME280;44529;47.464;19.014;2023-06-19T10:51:44;100145.91;;;31.24;33.71
58761;BME280;44529;47.464;19.014;2023-06-19T10:54:56;100139.63;;;31.20;33.28
58761;BME280;44529;47.464;19.014;2023-06-19T10:57:58;100141.91;;;31.12;33.76
58761;BME280;44529;47.464;19.014;2023-06-19T11:01:01;100144.22;;;31.14;33.93
58761;BME280;44529;47.464;19.014;2023-06-19T11:04:05;100140.41;;;30.98;35.41
58761;BME280;44529;47.464;19.014;2023-06-19T11:07:08;100142.66;;;30.91;33.53
58761;BME280;44529;47.464;19.014;2023-06-19T11:10:19;100143.97;;;30.99;34.14
58761;BME280;44529;47.464;19.014;2023-06-19T11:13:22;100132.16;;;30.73;32.92
58761;BME280;44529;47.464;19.014;2023-06-19T11:16:27;100134.03;;;30.76;33.78
58761;BME280;44529;47.464;19.014;2023-06-19T11:19:30;100137.22;;;30.87;34.28
58761;BME280;44529;47.464;19.014;2023-06-19T11:22:40;100131.31;;;30.85;33.39
58761;BME280;44529;47.464;19.014;2023-06-19T11:25:49;100125.37;;;30.83;33.30
58761;BME280;44529;47.464;19.014;2023-06-19T11:28:51;100120.06;;;30.76;33.25
58761;BME280;44529;47.464;19.014;2023-06-19T11:32:12;100130.94;;;30.61;33.23
58761;BME280;44529;47.464;19.014;2023-06-19T11:35:17;100118.69;;;30.46;34.88
58761;BME280;44529;47.464;19.014;2023-06-19T11:38:21;100117.47;;;30.47;33.99
58761;BME280;44529;47.464;19.014;2023-06-19T11:41:27;100118.09;;;30.16;32.90
58761;BME280;44529;47.464;19.014;2023-06-19T11:44:31;100117.31;;;30.16;34.19
58761;BME280;44529;47.464;19.014;2023-06-19T11:47:33;100107.56;;;30.33;34.18
58761;BME280;44529;47.464;19.014;2023-06-19T11:50:36;100104.19;;;30.38;34.02
58761;BME280;44529;47.464;19.014;2023-06-19T11:53:39;100099.19;;;30.33;34.97
58761;BME280;44529;47.464;19.014;2023-06-19T11:56:42;100113.78;;;30.37;34.07
58761;BME280;44529;47.464;19.014;2023-06-19T11:59:44;100101.97;;;30.33;35.17
58761;BME280;44529;47.464;19.014;2023-06-19T12:02:46;100103.19;;;30.32;34.74
58761;BME280;44529;47.464;19.014;2023-06-19T12:05:50;100103.81;;;30.27;33.84
58761;BME280;44529;47.464;19.014;2023-06-19T12:08:52;100106.25;;;30.25;34.44
58761;BME280;44529;47.464;19.014;2023-06-19T12:11:55;100099.34;;;30.17;34.71
58761;BME280;44529;47.464;19.014;2023-06-19T12:14:57;100098.44;;;30.20;35.22
58761;BME280;44529;47.464;19.014;2023-06-19T12:17:59;100100.69;;;30.12;33.81
58761;BME280;44529;47.464;19.014;2023-06-19T12:21:02;100091.87;;;30.14;34.30
58761;BME280;44529;47.464;19.014;2023-06-19T12:24:05;100086.62;;;30.16;34.71
58761;BME280;44529;47.464;19.014;2023-06-19T12:27:08;100082.69;;;30.26;34.45
58761;BME280;44529;47.464;19.014;2023-06-19T12:30:11;100079.47;;;30.28;33.93
58761;BME280;44529;47.464;19.014;2023-06-19T12:33:14;100075.06;;;30.39;34.30
58761;BME280;44529;47.464;19.014;2023-06-19T12:36:16;100080.00;;;30.35;33.23
58761;BME280;44529;47.464;19.014;2023-06-19T12:39:18;100067.81;;;30.42;33.37
58761;BME280;44529;47.464;19.014;2023-06-19T12:42:21;100063.53;;;30.50;33.72
58761;BME280;44529;47.464;19.014;2023-06-19T12:45:24;100062.44;;;30.47;34.25
58761;BME280;44529;47.464;19.014;2023-06-19T12:48:27;100056.50;;;30.45;34.17
58761;BME280;44529;47.464;19.014;2023-06-19T12:51:29;100057.75;;;30.44;34.49
58761;BME280;44529;47.464;19.014;2023-06-19T12:54:32;100058.97;;;30.43;34.67
58761;BME280;44529;47.464;19.014;2023-06-19T12:57:34;100051.69;;;30.46;33.67
58761;BME280;44529;47.464;19.014;2023-06-19T13:00:37;100049.06;;;30.42;32.06
58761;BME280;44529;47.464;19.014;2023-06-19T13:03:39;100050.78;;;30.27;32.66
58761;BME280;44529;47.464;19.014;2023-06-19T13:06:42;100049.06;;;30.42;33.12
58761;BME280;44529;47.464;19.014;2023-06-19T13:09:44;100048.47;;;30.47;33.44
58761;BME280;44529;47.464;19.014;2023-06-19T13:12:47;100044.78;;;30.51;34.83
58761;BME280;44529;47.464;19.014;2023-06-19T13:15:49;100041.72;;;30.58;33.92
58761;BME280;44529;47.464;19.014;2023-06-19T13:18:52;100036.91;;;30.58;34.29
58761;BME280;44529;47.464;19.014;2023-06-19T13:21:54;100038.88;;;30.48;33.46
58761;BME280;44529;47.464;19.014;2023-06-19T13:24:57;100038.94;;;30.58;33.48
58761;BME280;44529;47.464;19.014;2023-06-19T13:27:59;100033.09;;;30.65;33.70
58761;BME280;44529;47.464;19.014;2023-06-19T13:31:03;100028.69;;;30.55;34.06
58761;BME280;44529;47.464;19.014;2023-06-19T13:34:05;100030.66;;;30.32;33.24
58761;BME280;44529;47.464;19.014;2023-06-19T13:37:08;100036.91;;;30.36;32.39
58761;BME280;44529;47.464;19.014;2023-06-19T13:40:11;100040.87;;;30.13;33.92
58761;BME280;44529;47.464;19.014;2023-06-19T13:43:14;100036.53;;;30.00;34.43
58761;BME280;44529;47.464;19.014;2023-06-19T13:46:16;100033.34;;;29.88;35.03
58761;BME280;44529;47.464;19.014;2023-06-19T13:49:20;100039.03;;;29.72;35.69
58761;BME280;44529;47.464;19.014;2023-06-19T13:52:22;100035.00;;;29.48;36.77
58761;BME280;44529;47.464;19.014;2023-06-19T13:55:24;100035.78;;;29.23;37.16
58761;BME280;44529;47.464;19.014;2023-06-19T13:58:27;100031.06;;;28.94;36.79
58761;BME280;44529;47.464;19.014;2023-06-19T14:01:29;100022.47;;;28.88;37.10
58761;BME280;44529;47.464;19.014;2023-06-19T14:04:32;100033.87;;;28.78;37.19
58761;BME280;44529;47.464;19.014;2023-06-19T14:07:35;100032.00;;;28.75;38.48
58761;BME280;44529;47.464;19.014;2023-06-19T14:10:38;100030.19;;;28.68;38.54
58761;BME280;44529;47.464;19.014;2023-06-19T14:13:40;100033.31;;;28.70;37.68
58761;BME280;44529;47.464;19.014;2023-06-19T14:16:43;100028.28;;;28.65;37.99
58761;BME280;44529;47.464;19.014;2023-06-19T14:19:45;100019.69;;;28.47;39.83
58761;BME280;44529;47.464;19.014;2023-06-19T14:22:47;100027.16;;;28.33;41.01
58761;BME280;44529;47.464;19.014;2023-06-19T14:25:50;100020.84;;;28.17;40.47
58761;BME280;44529;47.464;19.014;2023-06-19T14:28:52;100016.75;;;28.21;39.92
58761;BME280;44529;47.464;19.014;2023-06-19T14:31:59;100015.19;;;28.37;38.36
58761;BME280;44529;47.464;19.014;2023-06-19T14:35:02;100011.62;;;28.36;38.18
58761;BME280;44529;47.464;19.014;2023-06-19T14:38:04;100014.47;;;28.32;39.82
58761;BME280;44529;47.464;19.014;2023-06-19T14:41:06;100012.22;;;28.27;36.24
58761;BME280;44529;47.464;19.014;2023-06-19T14:44:09;100021.75;;;28.26;38.81
58761;BME280;44529;47.464;19.014;2023-06-19T14:47:11;100012.94;;;28.15;37.88
58761;BME280;44529;47.464;19.014;2023-06-19T14:50:14;100014.31;;;28.07;38.14
58761;BME280;44529;47.464;19.014;2023-06-19T14:53:16;100018.69;;;27.92;41.78
58761;BME280;44529;47.464;19.014;2023-06-19T14:56:19;100016.34;;;27.90;42.50
58761;BME280;44529;47.464;19.014;2023-06-19T14:59:21;100011.91;;;28.09;41.02
58761;BME280;44529;47.464;19.014;2023-06-19T15:02:23;100009.84;;;28.26;39.87
58761;BME280;44529;47.464;19.014;2023-06-19T15:05:26;100007.53;;;28.41;38.76
58761;BME280;44529;47.464;19.014;2023-06-19T15:08:28;100014.31;;;28.52;37.72
58761;BME280;44529;47.464;19.014;2023-06-19T15:11:31;100008.38;;;28.67;37.40
58761;BME280;44529;47.464;19.014;2023-06-19T15:14:33;100004.75;;;28.82;35.91
58761;BME280;44529;47.464;19.014;2023-06-19T15:17:38;100004.88;;;28.92;35.80
58761;BME280;44529;47.464;19.014;2023-06-19T15:20:40;99997.91;;;29.00;36.33
58761;BME280;44529;47.464;19.014;2023-06-19T15:23:43;99996.47;;;29.08;37.56
58761;BME280;44529;47.464;19.014;2023-06-19T15:26:45;99999.03;;;29.15;35.57
58761;BME280;44529;47.464;19.014;2023-06-19T15:29:47;99996.13;;;29.19;36.06
58761;BME280;44529;47.464;19.014;2023-06-19T15:32:50;100003.72;;;29.18;36.80
58761;BME280;44529;47.464;19.014;2023-06-19T15:35:52;99999.69;;;29.19;36.50
58761;BME280;44529;47.464;19.014;2023-06-19T15:38:55;100000.69;;;29.25;37.56
58761;BME280;44529;47.464;19.014;2023-06-19T15:41:58;99996.69;;;29.26;37.73
58761;BME280;44529;47.464;19.014;2023-06-19T15:45:00;99999.81;;;29.28;37.82
58761;BME280;44529;47.464;19.014;2023-06-19T15:48:04;99994.56;;;29.30;37.65